sensor_id;sensor_type;location;lat;lon;timestamp;pressure;altitude;pressure_sealevel;temperature;humidity
10978;BME280;5542;48.272;10.794;2022-10-26T00:01:45;95815.22;;;10.54;88.91
10978;BME280;5542;48.272;10.794;2022-10-26T00:04:11;95820.13;;;10.62;89.07
10978;BME280;5542;48.272;10.794;2022-10-26T00:06:38;95817.63;;;10.67;88.85
10978;BME280;5542;48.272;10.794;2022-10-26T00:09:04;95828.38;;;10.66;88.65
10978;BME280;5542;48.272;10.794;2022-10-26T00:11:31;95828.38;;;10.66;88.79
10978;BME280;5542;48.272;10.794;2022-10-26T00:13:57;95829.19;;;10.66;88.90
10978;BME280;5542;48.272;10.794;2022-10-26T00:16:26;95827.72;;;10.70;89.00
10978;BME280;5542;48.272;10.794;2022-10-26T00:18:53;95827.28;;;10.73;88.97
10978;BME280;5542;48.272;10.794;2022-10-26T00:21:20;95826.59;;;10.78;88.87
10978;BME280;5542;48.272;10.794;2022-10-26T00:23:47;95822.47;;;10.82;88.65
10978;BME280;5542;48.272;10.794;2022-10-26T00:26:13;95827.28;;;10.85;88.78
10978;BME280;5542;48.272;10.794;2022-10-26T00:28:40;95820.97;;;10.86;88.67
10978;BME280;5542;48.272;10.794;2022-10-26T00:31:10;95823.59;;;10.86;88.57
10978;BME280;5542;48.272;10.794;2022-10-26T00:33:38;95818.34;;;10.86;88.78
10978;BME280;5542;48.272;10.794;2022-10-26T00:36:05;95824.19;;;10.88;88.65
10978;BME280;5542;48.272;10.794;2022-10-26T00:38:33;95829.00;;;10.91;88.64
10978;BME280;5542;48.272;10.794;2022-10-26T00:41:00;95830.16;;;10.95;88.50
10978;BME280;5542;48.272;10.794;2022-10-26T00:43:37;95833.56;;;10.96;88.17
10978;BME280;5542;48.272;10.794;2022-10-26T00:46:07;95830.38;;;10.94;88.25
10978;BME280;5542;48.272;10.794;2022-10-26T00:48:39;95838.28;;;10.94;88.40
10978;BME280;5542;48.272;10.794;2022-10-26T00:51:08;95821.44;;;10.95;88.03
10978;BME280;5542;48.272;10.794;2022-10-26T00:53:36;95819.84;;;10.94;88.24
10978;BME280;5542;48.272;10.794;2022-10-26T00:56:03;95813.00;;;10.93;88.03
10978;BME280;5542;48.272;10.794;2022-10-26T00:58:31;95821.09;;;10.91;88.42
10978;BME280;5542;48.272;10.794;2022-10-26T01:00:57;95813.78;;;10.93;88.49
10978;BME280;5542;48.272;10.794;2022-10-26T01:03:24;95810.94;;;10.95;88.76
10978;BME280;5542;48.272;10.794;2022-10-26T01:05:55;95818.59;;;10.96;88.71
10978;BME280;5542;48.272;10.794;2022-10-26T01:08:23;95832.78;;;10.95;88.37
10978;BME280;5542;48.272;10.794;2022-10-26T01:10:52;95833.00;;;10.94;88.05
10978;BME280;5542;48.272;10.794;2022-10-26T01:13:19;95834.72;;;10.88;88.34
10978;BME280;5542;48.272;10.794;2022-10-26T01:15:50;95831.28;;;10.88;88.52
10978;BME280;5542;48.272;10.794;2022-10-26T01:18:28;95829.22;;;10.90;88.78
10978;BME280;5542;48.272;10.794;2022-10-26T01:21:22;95833.25;;;10.92;89.10
10978;BME280;5542;48.272;10.794;2022-10-26T01:24:17;95831.19;;;10.94;88.83
10978;BME280;5542;48.272;10.794;2022-10-26T01:26:52;95828.31;;;10.96;89.14
10978;BME280;5542;48.272;10.794;2022-10-26T01:32:26;95826.03;;;10.99;89.28
10978;BME280;5542;48.272;10.794;2022-10-26T01:35:00;95825.78;;;11.01;89.23
10978;BME280;5542;48.272;10.794;2022-10-26T01:37:35;95833.00;;;11.06;89.01
10978;BME280;5542;48.272;10.794;2022-10-26T01:40:07;95835.44;;;11.07;89.03
10978;BME280;5542;48.272;10.794;2022-10-26T01:42:36;95837.81;;;11.09;88.87
10978;BME280;5542;48.272;10.794;2022-10-26T01:45:09;95838.28;;;11.06;89.10
10978;BME280;5542;48.272;10.794;2022-10-26T01:47:39;95848.25;;;11.03;89.10
10978;BME280;5542;48.272;10.794;2022-10-26T01:50:08;95849.28;;;11.02;89.26
10978;BME280;5542;48.272;10.794;2022-10-26T01:52:35;95848.78;;;11.06;88.95
10978;BME280;5542;48.272;10.794;2022-10-26T01:55:05;95836.78;;;11.10;88.85
10978;BME280;5542;48.272;10.794;2022-10-26T01:57:33;95847.44;;;11.15;88.43
10978;BME280;5542;48.272;10.794;2022-10-26T02:00:04;95845.84;;;11.14;88.07
10978;BME280;5542;48.272;10.794;2022-10-26T02:02:53;95838.28;;;11.06;88.40
10978;BME280;5542;48.272;10.794;2022-10-26T02:05:47;95826.63;;;11.01;89.12
10978;BME280;5542;48.272;10.794;2022-10-26T02:08:30;95817.09;;;11.00;89.44
10978;BME280;5542;48.272;10.794;2022-10-26T02:11:09;95819.28;;;11.03;89.65
10978;BME280;5542;48.272;10.794;2022-10-26T02:13:45;95823.75;;;11.03;89.86
10978;BME280;5542;48.272;10.794;2022-10-26T02:16:20;95820.88;;;11.05;89.74
10978;BME280;5542;48.272;10.794;2022-10-26T02:18:55;95809.31;;;11.06;89.84
10978;BME280;5542;48.272;10.794;2022-10-26T02:21:27;95803.94;;;11.00;90.00
10978;BME280;5542;48.272;10.794;2022-10-26T02:23:57;95803.81;;;10.95;90.46
10978;BME280;5542;48.272;10.794;2022-10-26T02:26:27;95807.84;;;10.98;90.44
10978;BME280;5542;48.272;10.794;2022-10-26T02:28:57;95797.53;;;10.96;90.68
10978;BME280;5542;48.272;10.794;2022-10-26T02:31:26;95788.38;;;11.11;90.17
10978;BME280;5542;48.272;10.794;2022-10-26T02:33:56;95788.16;;;11.00;90.39
10978;BME280;5542;48.272;10.794;2022-10-26T02:36:26;95781.41;;;11.05;90.58
10978;BME280;5542;48.272;10.794;2022-10-26T02:38:54;95777.75;;;10.94;90.91
10978;BME280;5542;48.272;10.794;2022-10-26T02:41:24;95787.94;;;10.90;91.57
10978;BME280;5542;48.272;10.794;2022-10-26T02:43:53;95786.09;;;10.91;91.80
10978;BME280;5542;48.272;10.794;2022-10-26T02:46:25;95776.72;;;10.95;91.79
10978;BME280;5542;48.272;10.794;2022-10-26T02:48:52;95778.09;;;10.97;91.76
10978;BME280;5542;48.272;10.794;2022-10-26T02:51:25;95764.59;;;10.94;91.91
10978;BME280;5542;48.272;10.794;2022-10-26T02:53:57;95766.78;;;10.97;91.87
10978;BME280;5542;48.272;10.794;2022-10-26T02:56:28;95777.75;;;10.94;91.92
10978;BME280;5542;48.272;10.794;2022-10-26T02:59:00;95782.56;;;10.97;92.04
10978;BME280;5542;48.272;10.794;2022-10-26T03:01:28;95779.69;;;10.98;92.16
10978;BME280;5542;48.272;10.794;2022-10-26T03:03:56;95786.31;;;11.01;92.24
10978;BME280;5542;48.272;10.794;2022-10-26T03:06:25;95783.25;;;11.04;92.03
10978;BME280;5542;48.272;10.794;2022-10-26T03:08:51;95776.13;;;11.05;92.10
10978;BME280;5542;48.272;10.794;2022-10-26T03:11:18;95774.09;;;11.07;92.19
10978;BME280;5542;48.272;10.794;2022-10-26T03:13:44;95786.78;;;11.10;92.38
10978;BME280;5542;48.272;10.794;2022-10-26T03:16:11;95794.13;;;11.08;92.12
10978;BME280;5542;48.272;10.794;2022-10-26T03:18:38;95794.13;;;11.08;91.88
10978;BME280;5542;48.272;10.794;2022-10-26T03:21:05;95785.97;;;11.09;91.75
10978;BME280;5542;48.272;10.794;2022-10-26T03:23:33;95788.06;;;11.07;91.79
10978;BME280;5542;48.272;10.794;2022-10-26T03:25:59;95787.25;;;11.07;91.93
10978;BME280;5542;48.272;10.794;2022-10-26T03:28:26;95790.44;;;11.09;91.90
10978;BME280;5542;48.272;10.794;2022-10-26T03:30:52;95798.34;;;11.09;92.05
10978;BME280;5542;48.272;10.794;2022-10-26T03:33:19;95793.63;;;11.11;91.98
10978;BME280;5542;48.272;10.794;2022-10-26T03:35:45;95792.63;;;11.12;91.71
10978;BME280;5542;48.272;10.794;2022-10-26T03:38:12;95801.31;;;11.12;91.77
10978;BME280;5542;48.272;10.794;2022-10-26T03:40:41;95801.69;;;11.16;91.89
10978;BME280;5542;48.272;10.794;2022-10-26T03:43:07;95811.72;;;11.19;91.42
10978;BME280;5542;48.272;10.794;2022-10-26T03:45:34;95817.00;;;11.19;91.14
10978;BME280;5542;48.272;10.794;2022-10-26T03:48:00;95817.00;;;11.19;91.19
10978;BME280;5542;48.272;10.794;2022-10-26T03:50:27;95823.06;;;11.19;91.10
10978;BME280;5542;48.272;10.794;2022-10-26T03:52:53;95825.13;;;11.17;91.13
10978;BME280;5542;48.272;10.794;2022-10-26T03:55:20;95822.25;;;11.19;91.05
10978;BME280;5542;48.272;10.794;2022-10-26T03:57:48;95828.91;;;11.10;91.11
10978;BME280;5542;48.272;10.794;2022-10-26T04:00:16;95823.75;;;11.03;91.86
10978;BME280;5542;48.272;10.794;2022-10-26T04:02:44;95828.00;;;10.92;92.44
10978;BME280;5542;48.272;10.794;2022-10-26T04:05:12;95830.94;;;10.84;93.71
10978;BME280;5542;48.272;10.794;2022-10-26T04:07:40;95843.19;;;10.79;94.12
10978;BME280;5542;48.272;10.794;2022-10-26T04:10:08;95840.75;;;10.77;94.59
10978;BME280;5542;48.272;10.794;2022-10-26T04:12:35;95845.56;;;10.80;94.45
10978;BME280;5542;48.272;10.794;2022-10-26T04:15:04;95844.66;;;10.86;94.53
10978;BME280;5542;48.272;10.794;2022-10-26T04:17:32;95849.84;;;10.93;93.84
10978;BME280;5542;48.272;10.794;2022-10-26T04:19:58;95862.75;;;10.94;93.74
10978;BME280;5542;48.272;10.794;2022-10-26T04:22:25;95880.13;;;10.95;93.83
10978;BME280;5542;48.272;10.794;2022-10-26T04:24:51;95907.72;;;10.93;94.04
10978;BME280;5542;48.272;10.794;2022-10-26T04:27:18;95945.72;;;10.97;93.58
10978;BME280;5542;48.272;10.794;2022-10-26T04:29:44;95954.53;;;11.02;93.43
10978;BME280;5542;48.272;10.794;2022-10-26T04:32:12;95950.88;;;11.03;93.94
10978;BME280;5542;48.272;10.794;2022-10-26T04:34:39;95953.41;;;11.10;94.20
10978;BME280;5542;48.272;10.794;2022-10-26T04:37:05;95957.44;;;11.13;94.44
10978;BME280;5542;48.272;10.794;2022-10-26T04:39:32;95954.78;;;11.13;94.94
10978;BME280;5542;48.272;10.794;2022-10-26T04:41:58;95953.31;;;11.17;95.01
10978;BME280;5542;48.272;10.794;2022-10-26T04:44:25;95935.56;;;11.12;95.27
10978;BME280;5542;48.272;10.794;2022-10-26T04:46:51;95932.94;;;11.12;96.07
10978;BME280;5542;48.272;10.794;2022-10-26T04:49:19;95930.06;;;11.14;95.87
10978;BME280;5542;48.272;10.794;2022-10-26T04:51:46;95912.91;;;11.11;96.04
10978;BME280;5542;48.272;10.794;2022-10-26T04:54:12;95922.75;;;11.16;95.98
10978;BME280;5542;48.272;10.794;2022-10-26T04:56:39;95931.78;;;11.20;95.71
10978;BME280;5542;48.272;10.794;2022-10-26T04:59:06;95936.50;;;11.18;96.15
10978;BME280;5542;48.272;10.794;2022-10-26T05:01:32;95943.34;;;11.19;96.20
10978;BME280;5542;48.272;10.794;2022-10-26T05:03:59;95956.44;;;11.25;95.73
10978;BME280;5542;48.272;10.794;2022-10-26T05:06:27;95955.97;;;11.28;95.30
10978;BME280;5542;48.272;10.794;2022-10-26T05:08:54;95949.44;;;11.31;94.96
10978;BME280;5542;48.272;10.794;2022-10-26T05:11:20;95948.84;;;11.29;95.54
10978;BME280;5542;48.272;10.794;2022-10-26T05:13:47;95950.59;;;11.35;95.49
10978;BME280;5542;48.272;10.794;2022-10-26T05:16:14;95943.50;;;11.36;95.59
10978;BME280;5542;48.272;10.794;2022-10-26T05:18:41;95938.00;;;11.37;95.65
10978;BME280;5542;48.272;10.794;2022-10-26T05:21:07;95916.69;;;11.39;95.81
10978;BME280;5542;48.272;10.794;2022-10-26T05:23:35;95913.84;;;11.40;95.64
10978;BME280;5542;48.272;10.794;2022-10-26T05:26:02;95920.28;;;11.44;95.76
10978;BME280;5542;48.272;10.794;2022-10-26T05:28:29;95913.50;;;11.37;96.25
10978;BME280;5542;48.272;10.794;2022-10-26T05:30:57;95932.16;;;11.35;96.93
10978;BME280;5542;48.272;10.794;2022-10-26T05:33:24;95930.09;;;11.37;96.64
10978;BME280;5542;48.272;10.794;2022-10-26T05:35:52;95920.59;;;11.36;96.99
10978;BME280;5542;48.272;10.794;2022-10-26T05:38:19;95920.47;;;11.43;96.32
10978;BME280;5542;48.272;10.794;2022-10-26T05:40:47;95945.78;;;11.44;96.54
10978;BME280;5542;48.272;10.794;2022-10-26T05:43:14;95945.78;;;11.44;96.87
10978;BME280;5542;48.272;10.794;2022-10-26T05:45:41;95947.41;;;11.45;97.00
10978;BME280;5542;48.272;10.794;2022-10-26T05:48:07;95946.81;;;11.43;97.07
10978;BME280;5542;48.272;10.794;2022-10-26T05:50:34;95936.88;;;11.45;97.05
10978;BME280;5542;48.272;10.794;2022-10-26T05:53:01;95936.28;;;11.43;97.26
10978;BME280;5542;48.272;10.794;2022-10-26T05:55:28;95935.03;;;11.45;97.17
10978;BME280;5542;48.272;10.794;2022-10-26T05:57:56;95929.19;;;11.43;97.40
10978;BME280;5542;48.272;10.794;2022-10-26T06:00:25;95947.63;;;11.43;97.67
10978;BME280;5542;48.272;10.794;2022-10-26T06:03:07;95947.06;;;11.41;97.99
10978;BME280;5542;48.272;10.794;2022-10-26T06:05:40;95944.88;;;11.38;98.67
10978;BME280;5542;48.272;10.794;2022-10-26T06:08:11;95943.81;;;11.39;98.84
10978;BME280;5542;48.272;10.794;2022-10-26T06:10:38;95947.06;;;11.41;98.89
10978;BME280;5542;48.272;10.794;2022-10-26T06:13:07;95942.81;;;11.40;98.60
10978;BME280;5542;48.272;10.794;2022-10-26T06:15:39;95950.47;;;11.42;98.46
10978;BME280;5542;48.272;10.794;2022-10-26T06:18:16;95948.66;;;11.42;98.63
10978;BME280;5542;48.272;10.794;2022-10-26T06:20:50;95953.47;;;11.45;98.53
10978;BME280;5542;48.272;10.794;2022-10-26T06:23:45;95953.59;;;11.50;98.65
10978;BME280;5542;48.272;10.794;2022-10-26T06:26:26;95962.16;;;11.58;98.02
10978;BME280;5542;48.272;10.794;2022-10-26T06:29:06;95954.25;;;11.58;97.92
10978;BME280;5542;48.272;10.794;2022-10-26T06:31:35;95941.69;;;11.60;98.08
10978;BME280;5542;48.272;10.794;2022-10-26T06:34:02;95948.00;;;11.59;97.84
10978;BME280;5542;48.272;10.794;2022-10-26T06:36:29;95948.09;;;11.64;97.46
10978;BME280;5542;48.272;10.794;2022-10-26T06:39:00;95952.78;;;11.62;97.40
10978;BME280;5542;48.272;10.794;2022-10-26T06:41:30;95956.00;;;11.64;97.44
10978;BME280;5542;48.272;10.794;2022-10-26T06:43:57;95949.94;;;11.63;97.49
10978;BME280;5542;48.272;10.794;2022-10-26T06:46:31;95953.38;;;11.64;97.55
10978;BME280;5542;48.272;10.794;2022-10-26T06:49:07;95951.31;;;11.66;97.68
10978;BME280;5542;48.272;10.794;2022-10-26T06:51:40;95953.50;;;11.69;97.45
10978;BME280;5542;48.272;10.794;2022-10-26T06:54:14;95959.91;;;11.73;97.46
10978;BME280;5542;48.272;10.794;2022-10-26T06:56:42;95963.09;;;11.75;97.63
10978;BME280;5542;48.272;10.794;2022-10-26T06:59:15;95959.91;;;11.85;97.42
10978;BME280;5542;48.272;10.794;2022-10-26T07:01:45;95957.03;;;11.86;97.44
10978;BME280;5542;48.272;10.794;2022-10-26T07:04:11;95965.75;;;11.87;97.43
10978;BME280;5542;48.272;10.794;2022-10-26T07:06:38;95964.94;;;11.86;97.78
10978;BME280;5542;48.272;10.794;2022-10-26T07:09:04;95960.28;;;11.88;97.73
10978;BME280;5542;48.272;10.794;2022-10-26T07:11:31;95959.47;;;11.88;98.26
10978;BME280;5542;48.272;10.794;2022-10-26T07:13:57;95968.97;;;11.89;98.25
10978;BME280;5542;48.272;10.794;2022-10-26T07:16:24;95966.09;;;11.90;98.50
10978;BME280;5542;48.272;10.794;2022-10-26T07:18:53;95967.69;;;11.91;98.47
10978;BME280;5542;48.272;10.794;2022-10-26T07:21:20;95957.97;;;11.92;98.85
10978;BME280;5542;48.272;10.794;2022-10-26T07:23:46;95948.78;;;11.94;98.97
10978;BME280;5542;48.272;10.794;2022-10-26T07:26:13;95942.59;;;12.00;98.59
10978;BME280;5542;48.272;10.794;2022-10-26T07:28:39;95955.31;;;12.03;98.62
10978;BME280;5542;48.272;10.794;2022-10-26T07:31:06;95955.31;;;12.03;98.97
10978;BME280;5542;48.272;10.794;2022-10-26T07:33:32;95961.16;;;12.05;99.25
10978;BME280;5542;48.272;10.794;2022-10-26T07:36:00;95956.78;;;12.23;100.00
10978;BME280;5542;48.272;10.794;2022-10-26T07:38:27;95956.97;;;12.45;100.00
10978;BME280;5542;48.272;10.794;2022-10-26T07:40:53;95958.19;;;12.54;100.00
10978;BME280;5542;48.272;10.794;2022-10-26T07:43:20;95960.13;;;12.59;99.61
10978;BME280;5542;48.272;10.794;2022-10-26T07:45:48;95971.25;;;12.61;99.33
10978;BME280;5542;48.272;10.794;2022-10-26T07:48:15;95963.41;;;12.66;98.95
10978;BME280;5542;48.272;10.794;2022-10-26T07:50:41;95977.38;;;12.78;99.07
10978;BME280;5542;48.272;10.794;2022-10-26T07:53:09;95986.84;;;12.91;99.45
10978;BME280;5542;48.272;10.794;2022-10-26T07:55:36;95985.44;;;13.00;99.18
10978;BME280;5542;48.272;10.794;2022-10-26T07:58:02;95985.22;;;13.01;98.16
10978;BME280;5542;48.272;10.794;2022-10-26T08:00:29;95985.50;;;13.05;97.47
10978;BME280;5542;48.272;10.794;2022-10-26T08:02:56;95991.75;;;12.99;96.36
10978;BME280;5542;48.272;10.794;2022-10-26T08:05:23;95991.50;;;13.00;95.47
10978;BME280;5542;48.272;10.794;2022-10-26T08:07:49;95994.72;;;13.02;94.93
10978;BME280;5542;48.272;10.794;2022-10-26T08:10:17;95999.06;;;13.08;93.91
10978;BME280;5542;48.272;10.794;2022-10-26T08:12:44;96002.34;;;13.16;93.41
10978;BME280;5542;48.272;10.794;2022-10-26T08:15:11;96002.44;;;13.21;93.52
10978;BME280;5542;48.272;10.794;2022-10-26T08:17:37;95995.91;;;13.23;93.48
10978;BME280;5542;48.272;10.794;2022-10-26T08:20:05;95991.69;;;13.39;93.08
10978;BME280;5542;48.272;10.794;2022-10-26T08:22:31;95990.78;;;13.33;93.74
10978;BME280;5542;48.272;10.794;2022-10-26T08:24:58;95987.63;;;13.48;92.98
10978;BME280;5542;48.272;10.794;2022-10-26T08:27:26;95995.78;;;13.64;92.56
10978;BME280;5542;48.272;10.794;2022-10-26T08:29:52;95993.19;;;13.86;92.62
10978;BME280;5542;48.272;10.794;2022-10-26T08:32:19;95982.94;;;13.89;91.81
10978;BME280;5542;48.272;10.794;2022-10-26T08:34:45;95976.13;;;13.93;90.98
10978;BME280;5542;48.272;10.794;2022-10-26T08:37:12;95995.25;;;14.00;90.94
10978;BME280;5542;48.272;10.794;2022-10-26T08:39:39;95992.78;;;14.11;91.25
10978;BME280;5542;48.272;10.794;2022-10-26T08:42:12;95992.63;;;14.39;90.14
10978;BME280;5542;48.272;10.794;2022-10-26T08:44:43;95989.84;;;14.68;87.84
10978;BME280;5542;48.272;10.794;2022-10-26T08:47:15;95992.03;;;14.76;88.04
10978;BME280;5542;48.272;10.794;2022-10-26T08:49:47;95995.34;;;14.88;88.30
10978;BME280;5542;48.272;10.794;2022-10-26T08:52:18;95996.13;;;15.10;88.22
10978;BME280;5542;48.272;10.794;2022-10-26T08:54:50;95997.63;;;15.60;88.56
10978;BME280;5542;48.272;10.794;2022-10-26T08:57:21;95988.44;;;16.05;85.03
10978;BME280;5542;48.272;10.794;2022-10-26T08:59:56;95989.94;;;16.38;82.55
10978;BME280;5542;48.272;10.794;2022-10-26T09:02:24;95992.44;;;16.65;79.83
10978;BME280;5542;48.272;10.794;2022-10-26T09:04:51;96004.47;;;16.83;75.66
10978;BME280;5542;48.272;10.794;2022-10-26T09:07:36;96000.25;;;16.87;75.98
10978;BME280;5542;48.272;10.794;2022-10-26T09:10:18;96003.75;;;17.08;73.28
10978;BME280;5542;48.272;10.794;2022-10-26T09:12:52;96004.00;;;17.02;74.29
10978;BME280;5542;48.272;10.794;2022-10-26T09:15:27;96003.81;;;17.34;72.83
10978;BME280;5542;48.272;10.794;2022-10-26T09:18:05;96003.81;;;17.59;71.24
10978;BME280;5542;48.272;10.794;2022-10-26T09:20:45;96011.81;;;17.70;69.16
10978;BME280;5542;48.272;10.794;2022-10-26T09:23:26;96006.50;;;17.75;67.95
10978;BME280;5542;48.272;10.794;2022-10-26T09:25:57;96014.47;;;17.59;67.66
10978;BME280;5542;48.272;10.794;2022-10-26T09:28:26;96013.16;;;17.57;67.95
10978;BME280;5542;48.272;10.794;2022-10-26T09:30:57;96010.47;;;17.52;66.60
10978;BME280;5542;48.272;10.794;2022-10-26T09:33:24;96021.09;;;17.41;66.67
10978;BME280;5542;48.272;10.794;2022-10-26T09:35:56;96027.72;;;17.24;68.76
10978;BME280;5542;48.272;10.794;2022-10-26T09:38:28;96021.38;;;17.40;66.63
10978;BME280;5542;48.272;10.794;2022-10-26T09:40:59;96026.16;;;17.33;67.04
10978;BME280;5542;48.272;10.794;2022-10-26T09:43:30;96030.41;;;17.54;66.70
10978;BME280;5542;48.272;10.794;2022-10-26T09:46:00;96040.25;;;17.54;65.46
10978;BME280;5542;48.272;10.794;2022-10-26T09:48:32;96043.72;;;17.59;64.84
10978;BME280;5542;48.272;10.794;2022-10-26T09:51:00;96040.78;;;17.46;65.08
10978;BME280;5542;48.272;10.794;2022-10-26T09:53:27;96040.25;;;17.38;66.82
10978;BME280;5542;48.272;10.794;2022-10-26T09:56:00;96051.66;;;17.34;68.18
10978;BME280;5542;48.272;10.794;2022-10-26T09:58:33;96045.31;;;17.50;66.06
10978;BME280;5542;48.272;10.794;2022-10-26T10:01:02;96050.38;;;17.67;65.95
10978;BME280;5542;48.272;10.794;2022-10-26T10:03:30;96053.03;;;17.57;67.00
10978;BME280;5542;48.272;10.794;2022-10-26T10:06:14;96054.88;;;17.56;67.32
10978;BME280;5542;48.272;10.794;2022-10-26T10:08:42;96060.00;;;17.73;66.58
10978;BME280;5542;48.272;10.794;2022-10-26T10:11:10;96065.31;;;18.04;64.73
10978;BME280;5542;48.272;10.794;2022-10-26T10:13:38;96058.66;;;18.06;64.36
10978;BME280;5542;48.272;10.794;2022-10-26T10:16:10;96064.75;;;18.17;64.62
10978;BME280;5542;48.272;10.794;2022-10-26T10:18:39;96069.03;;;17.98;65.65
10978;BME280;5542;48.272;10.794;2022-10-26T10:21:07;96062.09;;;18.12;64.64
10978;BME280;5542;48.272;10.794;2022-10-26T10:23:35;96072.22;;;18.25;63.60
10978;BME280;5542;48.272;10.794;2022-10-26T10:26:05;96066.38;;;18.13;64.76
10978;BME280;5542;48.272;10.794;2022-10-26T10:28:32;96071.91;;;18.37;63.72
10978;BME280;5542;48.272;10.794;2022-10-26T10:31:00;96073.84;;;18.11;65.03
10978;BME280;5542;48.272;10.794;2022-10-26T10:33:37;96076.75;;;18.20;64.78
10978;BME280;5542;48.272;10.794;2022-10-26T10:36:07;96068.78;;;18.14;66.25
10978;BME280;5542;48.272;10.794;2022-10-26T10:38:37;96082.88;;;18.25;64.65
10978;BME280;5542;48.272;10.794;2022-10-26T10:41:05;96078.59;;;18.04;66.09
10978;BME280;5542;48.272;10.794;2022-10-26T10:43:42;96076.50;;;18.01;65.86
10978;BME280;5542;48.272;10.794;2022-10-26T10:46:16;96073.56;;;18.07;66.06
10978;BME280;5542;48.272;10.794;2022-10-26T10:48:48;96081.53;;;17.97;65.77
10978;BME280;5542;48.272;10.794;2022-10-26T10:51:18;96080.19;;;17.89;66.80
10978;BME280;5542;48.272;10.794;2022-10-26T10:53:48;96086.34;;;17.90;66.89
10978;BME280;5542;48.272;10.794;2022-10-26T10:56:36;96090.59;;;18.01;66.24
10978;BME280;5542;48.272;10.794;2022-10-26T10:59:27;96091.13;;;18.08;65.88
10978;BME280;5542;48.272;10.794;2022-10-26T11:02:09;96095.66;;;18.08;66.45
10978;BME280;5542;48.272;10.794;2022-10-26T11:04:53;96095.91;;;18.11;66.84
10978;BME280;5542;48.272;10.794;2022-10-26T11:07:24;96097.50;;;18.23;65.71
10978;BME280;5542;48.272;10.794;2022-10-26T11:09:54;96100.44;;;18.21;65.34
10978;BME280;5542;48.272;10.794;2022-10-26T11:12:27;96102.28;;;18.31;64.56
10978;BME280;5542;48.272;10.794;2022-10-26T11:14:58;96103.63;;;18.33;64.35
10978;BME280;5542;48.272;10.794;2022-10-26T11:17:29;96101.22;;;18.47;64.51
10978;BME280;5542;48.272;10.794;2022-10-26T11:20:00;96101.44;;;18.56;65.73
10978;BME280;5542;48.272;10.794;2022-10-26T11:22:30;96107.84;;;18.75;62.00
10978;BME280;5542;48.272;10.794;2022-10-26T11:25:02;96105.75;;;18.52;62.89
10978;BME280;5542;48.272;10.794;2022-10-26T11:27:33;96104.94;;;18.61;62.78
10978;BME280;5542;48.272;10.794;2022-10-26T11:30:05;96113.16;;;18.60;62.49
10978;BME280;5542;48.272;10.794;2022-10-26T11:32:38;96104.94;;;18.56;62.95
10978;BME280;5542;48.272;10.794;2022-10-26T11:35:13;96113.47;;;18.53;62.66
10978;BME280;5542;48.272;10.794;2022-10-26T11:37:45;96107.34;;;18.48;63.08
10978;BME280;5542;48.272;10.794;2022-10-26T11:40:29;96115.88;;;18.39;64.13
10978;BME280;5542;48.272;10.794;2022-10-26T11:43:05;96116.38;;;18.47;63.41
10978;BME280;5542;48.272;10.794;2022-10-26T11:45:38;96114.00;;;18.45;63.93
10978;BME280;5542;48.272;10.794;2022-10-26T11:48:13;96112.13;;;18.40;63.48
10978;BME280;5542;48.272;10.794;2022-10-26T11:50:46;96108.16;;;18.28;64.77
10978;BME280;5542;48.272;10.794;2022-10-26T11:53:16;96123.06;;;18.39;64.52
10978;BME280;5542;48.272;10.794;2022-10-26T11:55:46;96123.84;;;18.50;63.64
10978;BME280;5542;48.272;10.794;2022-10-26T11:58:16;96117.97;;;18.58;63.39
10978;BME280;5542;48.272;10.794;2022-10-26T12:00:47;96122.22;;;18.64;63.25
10978;BME280;5542;48.272;10.794;2022-10-26T12:03:17;96123.84;;;18.55;62.87
10978;BME280;5542;48.272;10.794;2022-10-26T12:05:49;96131.03;;;18.59;64.24
10978;BME280;5542;48.272;10.794;2022-10-26T12:08:22;96141.41;;;18.56;64.56
10978;BME280;5542;48.272;10.794;2022-10-26T12:10:54;96141.69;;;18.75;62.24
10978;BME280;5542;48.272;10.794;2022-10-26T12:13:26;96143.31;;;18.71;62.11
10978;BME280;5542;48.272;10.794;2022-10-26T12:16:00;96143.28;;;18.55;63.10
10978;BME280;5542;48.272;10.794;2022-10-26T12:18:36;96144.63;;;18.48;64.05
10978;BME280;5542;48.272;10.794;2022-10-26T12:21:06;96158.22;;;18.56;62.85
10978;BME280;5542;48.272;10.794;2022-10-26T12:23:35;96153.66;;;18.67;63.16
10978;BME280;5542;48.272;10.794;2022-10-26T12:29:23;96160.88;;;18.72;63.24
10978;BME280;5542;48.272;10.794;2022-10-26T12:31:50;96164.06;;;18.79;63.48
10978;BME280;5542;48.272;10.794;2022-10-26T12:34:22;96166.22;;;18.72;62.97
10978;BME280;5542;48.272;10.794;2022-10-26T12:37:10;96162.47;;;18.57;63.63
10978;BME280;5542;48.272;10.794;2022-10-26T12:39:38;96166.19;;;18.66;63.71
10978;BME280;5542;48.272;10.794;2022-10-26T12:42:26;96154.19;;;18.79;62.34
10978;BME280;5542;48.272;10.794;2022-10-26T12:45:17;96157.13;;;18.83;62.66
10978;BME280;5542;48.272;10.794;2022-10-26T12:48:01;96160.31;;;18.95;62.14
10978;BME280;5542;48.272;10.794;2022-10-26T12:50:28;96159.78;;;18.88;61.34
10978;BME280;5542;48.272;10.794;2022-10-26T12:52:57;96157.16;;;18.73;63.47
10978;BME280;5542;48.272;10.794;2022-10-26T12:55:55;96157.13;;;18.83;63.31
10978;BME280;5542;48.272;10.794;2022-10-26T12:59:00;96162.97;;;18.80;63.72
10978;BME280;5542;48.272;10.794;2022-10-26T13:01:49;96160.84;;;18.87;63.94
10978;BME280;5542;48.272;10.794;2022-10-26T13:07:33;96165.06;;;18.98;63.71
10978;BME280;5542;48.272;10.794;2022-10-26T13:10:04;96171.19;;;19.09;63.34
10978;BME280;5542;48.272;10.794;2022-10-26T13:12:44;96162.88;;;19.21;63.00
10978;BME280;5542;48.272;10.794;2022-10-26T13:15:21;96163.13;;;19.29;62.62
10978;BME280;5542;48.272;10.794;2022-10-26T13:17:58;96160.75;;;19.28;62.04
10978;BME280;5542;48.272;10.794;2022-10-26T13:20:25;96162.31;;;19.29;60.92
10978;BME280;5542;48.272;10.794;2022-10-26T13:22:52;96169.28;;;19.19;61.82
10978;BME280;5542;48.272;10.794;2022-10-26T13:25:23;96167.06;;;19.37;60.18
10978;BME280;5542;48.272;10.794;2022-10-26T13:28:00;96172.66;;;19.40;59.39